createdAt,value
2022-11-20T00:01:58.214Z,100505.38
2022-11-20T00:04:24.739Z,100505.00
2022-11-20T00:06:51.320Z,100495.66
2022-11-20T00:09:17.874Z,100447.44
2022-11-20T00:11:45.804Z,100496.22
2022-11-20T00:14:12.389Z,100497.16
2022-11-20T00:16:38.965Z,100469.72
2022-11-20T00:19:05.539Z,100494.72
2022-11-20T00:21:32.444Z,100494.63
2022-11-20T00:23:59.427Z,100500.69
2022-11-20T00:26:27.810Z,100496.31
2022-11-20T00:28:58.140Z,100496.22
2022-11-20T00:31:25.078Z,100494.47
2022-11-20T00:33:51.818Z,100496.16
2022-11-20T00:36:20.529Z,100496.31
2022-11-20T00:38:48.245Z,100496.59
2022-11-20T00:41:16.406Z,100498.88
2022-11-20T00:43:43.783Z,100496.16
2022-11-20T00:46:14.530Z,100494.66
2022-11-20T00:48:41.554Z,100481.91
2022-11-20T00:51:08.457Z,100487.72
2022-11-20T00:53:35.694Z,100484.19
2022-11-20T00:56:04.362Z,100489.59
2022-11-20T00:58:33.103Z,100494.19
2022-11-20T01:01:03.144Z,100490.66
2022-11-20T01:03:33.566Z,100494.81
2022-11-20T01:06:04.070Z,100494.00
2022-11-20T01:08:32.047Z,100488.69
2022-11-20T01:11:02.412Z,100450.16
2022-11-20T01:13:30.211Z,100477.41
2022-11-20T01:16:02.205Z,100494.75
2022-11-20T01:18:28.800Z,100487.69
2022-11-20T01:21:00.437Z,100487.69
2022-11-20T01:23:27.032Z,100486.91
2022-11-20T01:25:53.586Z,100472.78
2022-11-20T01:28:20.120Z,100473.88
2022-11-20T01:30:46.620Z,100470.63
2022-11-20T01:33:13.232Z,100463.16
2022-11-20T01:35:41.132Z,100463.03
2022-11-20T01:38:09.053Z,100458.13
2022-11-20T01:40:35.585Z,100463.59
2022-11-20T01:43:14.471Z,100466.22
2022-11-20T01:46:15.962Z,100459.78
2022-11-20T01:48:48.740Z,100463.31
2022-11-20T01:51:21.875Z,100459.88
2022-11-20T01:53:51.220Z,100457.75
2022-11-20T01:56:18.174Z,100460.78
2022-11-20T01:58:49.551Z,100454.19
2022-11-20T02:01:16.867Z,100454.25
2022-11-20T02:03:44.638Z,100457.63
2022-11-20T02:06:16.065Z,100469.53
2022-11-20T02:08:42.691Z,100468.78
2022-11-20T02:11:10.793Z,100476.53
2022-11-20T02:13:37.444Z,100464.69
2022-11-20T02:16:05.135Z,100480.81
2022-11-20T02:18:33.049Z,100481.47
2022-11-20T02:21:07.156Z,100487.44
2022-11-20T02:23:39.181Z,100480.38
2022-11-20T02:26:09.130Z,100486.44
2022-11-20T02:28:35.820Z,100454.41
2022-11-20T02:31:02.635Z,100435.44
2022-11-20T02:33:29.163Z,100473.13
2022-11-20T02:36:11.035Z,100471.22
2022-11-20T02:38:37.731Z,100413.34
2022-11-20T02:41:04.851Z,100470.22
2022-11-20T02:43:32.965Z,100461.47
2022-11-20T02:45:59.801Z,100471.72
2022-11-20T02:48:28.209Z,100456.19
2022-11-20T02:50:56.715Z,100450.97
2022-11-20T02:53:23.252Z,100432.75
2022-11-20T02:55:49.822Z,100452.97
2022-11-20T02:58:17.360Z,100439.22
2022-11-20T03:00:45.693Z,100447.13
2022-11-20T03:03:12.202Z,100442.91
2022-11-20T03:05:39.070Z,100437.69
2022-11-20T03:08:05.623Z,100427.25
2022-11-20T03:10:32.534Z,100395.41
2022-11-20T03:12:59.066Z,100418.50
2022-11-20T03:15:25.764Z,100410.03
2022-11-20T03:17:55.943Z,100406.75
2022-11-20T03:20:23.026Z,100398.31
2022-11-20T03:22:49.606Z,100411.91
2022-11-20T03:25:16.185Z,100416.47
2022-11-20T03:27:42.689Z,100422.59
2022-11-20T03:30:10.494Z,100423.44
2022-11-20T03:32:37.010Z,100418.16
2022-11-20T03:35:05.877Z,100418.88
2022-11-20T03:37:32.927Z,100389.16
2022-11-20T03:39:59.754Z,100422.72
2022-11-20T03:42:26.281Z,100419.91
2022-11-20T03:44:52.879Z,100424.00
2022-11-20T03:47:19.437Z,100427.75
2022-11-20T03:49:46.054Z,100388.84
2022-11-20T03:52:13.999Z,100434.16
2022-11-20T03:54:40.618Z,100420.81
2022-11-20T03:57:07.175Z,100435.81
2022-11-20T03:59:33.780Z,100439.09
2022-11-20T04:02:00.351Z,100417.06
2022-11-20T04:04:26.932Z,100428.66
2022-11-20T04:06:54.345Z,100419.81
2022-11-20T04:09:22.528Z,100409.56
2022-11-20T04:11:49.495Z,100412.47
2022-11-20T04:14:17.129Z,100404.63
2022-11-20T04:16:44.113Z,100414.63
2022-11-20T04:19:13.272Z,100392.44
2022-11-20T04:21:40.527Z,100404.47
2022-11-20T04:24:07.738Z,100399.63
2022-11-20T04:26:35.640Z,100407.53
2022-11-20T04:29:02.237Z,100411.53
2022-11-20T04:31:30.613Z,100404.75
2022-11-20T04:34:03.614Z,100405.84
2022-11-20T04:36:30.965Z,100380.69
2022-11-20T04:38:59.113Z,100400.25
2022-11-20T04:41:28.440Z,100375.19
2022-11-20T04:43:58.381Z,100392.91
2022-11-20T04:46:24.890Z,100388.16
2022-11-20T04:48:51.380Z,100391.31
2022-11-20T04:51:18.009Z,100397.53
2022-11-20T04:53:44.887Z,100400.44
2022-11-20T04:56:13.250Z,100399.78
2022-11-20T04:58:40.549Z,100363.78
2022-11-20T05:01:11.237Z,100372.00
2022-11-20T05:03:42.183Z,100401.84
2022-11-20T05:06:10.783Z,100393.94
2022-11-20T05:08:37.525Z,100405.66
2022-11-20T05:11:05.562Z,100398.09
2022-11-20T05:13:32.098Z,100393.81
2022-11-20T05:16:02.598Z,100398.09
2022-11-20T05:18:30.772Z,100376.00
2022-11-20T05:20:57.637Z,100394.56
2022-11-20T05:23:24.313Z,100391.22
2022-11-20T05:25:58.529Z,100389.16
2022-11-20T05:28:26.785Z,100266.81
2022-11-20T05:30:53.290Z,100402.19
2022-11-20T05:33:20.415Z,100357.41
2022-11-20T05:35:48.944Z,100374.81
2022-11-20T05:38:15.805Z,100388.25
2022-11-20T05:40:42.347Z,100385.53
2022-11-20T05:43:10.369Z,100385.53
2022-11-20T05:45:37.129Z,100394.00
2022-11-20T05:48:04.130Z,100390.47
2022-11-20T05:50:30.801Z,100373.13
2022-11-20T05:53:00.707Z,100389.00
2022-11-20T05:55:27.238Z,100365.50
2022-11-20T05:57:54.489Z,100404.75
2022-11-20T06:00:21.142Z,100285.03
2022-11-20T06:02:47.699Z,100340.44
2022-11-20T06:05:14.327Z,100398.59
2022-11-20T06:07:40.958Z,100412.75
2022-11-20T06:10:10.040Z,100358.97
2022-11-20T06:12:36.637Z,100420.47
2022-11-20T06:15:03.505Z,100418.88
2022-11-20T06:17:30.061Z,100417.94
2022-11-20T06:19:56.593Z,100419.44
2022-11-20T06:22:23.110Z,100418.63
2022-11-20T06:24:49.702Z,100414.81
2022-11-20T06:27:17.832Z,100414.81
2022-11-20T06:29:44.425Z,100414.41
2022-11-20T06:32:11.117Z,100414.22
2022-11-20T06:34:37.732Z,100414.22
2022-11-20T06:37:04.228Z,100405.00
2022-11-20T06:39:30.739Z,100419.44
2022-11-20T06:41:59.048Z,100425.63
2022-11-20T06:44:28.575Z,100418.25
2022-11-20T06:46:55.075Z,100413.22
2022-11-20T06:49:21.836Z,100419.44
2022-11-20T06:51:48.528Z,100413.31
2022-11-20T06:54:16.109Z,100411.53
2022-11-20T06:56:42.651Z,100416.66
2022-11-20T06:59:09.212Z,100429.63
2022-11-20T07:01:37.080Z,100432.41
2022-11-20T07:04:03.720Z,100425.34
2022-11-20T07:06:30.237Z,100429.72
2022-11-20T07:08:56.745Z,100427.63
2022-11-20T07:11:23.546Z,100428.78
2022-11-20T07:13:50.394Z,100434.63
2022-11-20T07:16:17.616Z,100437.31
2022-11-20T07:18:50.469Z,100438.84
2022-11-20T07:21:17.842Z,100404.63
2022-11-20T07:23:44.467Z,100445.63
2022-11-20T07:26:11.780Z,100414.41
2022-11-20T07:28:38.960Z,100450.41
2022-11-20T07:31:06.699Z,100445.25
2022-11-20T07:33:34.832Z,100449.19
2022-11-20T07:36:02.912Z,100444.66
2022-11-20T07:38:30.951Z,100449.88
2022-11-20T07:40:58.140Z,100406.59
2022-11-20T07:43:24.775Z,100453.88
2022-11-20T07:45:51.356Z,100457.31
2022-11-20T07:48:17.891Z,100450.13
2022-11-20T07:50:45.579Z,100446.38
2022-11-20T07:53:14.565Z,100440.06
2022-11-20T07:55:41.198Z,100445.28
2022-11-20T07:58:07.746Z,100415.75
2022-11-20T08:00:34.418Z,100448.47
2022-11-20T08:03:04.282Z,100444.91
2022-11-20T08:05:30.890Z,100282.53
2022-11-20T08:07:57.435Z,100446.59
2022-11-20T08:10:25.867Z,100444.84
2022-11-20T08:12:53.430Z,100442.22
2022-11-20T08:15:20.004Z,100431.88
2022-11-20T08:18:08.182Z,100433.06
2022-11-20T08:20:33.687Z,100440.72
2022-11-20T08:23:00.822Z,100432.88
2022-11-20T08:25:29.545Z,100396.72
2022-11-20T08:28:00.367Z,100451.88
2022-11-20T08:30:28.443Z,100428.28
2022-11-20T08:32:55.240Z,100445.72
2022-11-20T08:35:22.418Z,100448.34
2022-11-20T08:37:50.386Z,100450.00
2022-11-20T08:40:19.597Z,100434.72
2022-11-20T08:42:48.499Z,100454.75
2022-11-20T08:45:15.389Z,100398.47
2022-11-20T08:47:42.121Z,100456.06
2022-11-20T08:50:09.878Z,100458.06
2022-11-20T08:52:39.879Z,100454.16
2022-11-20T08:55:08.072Z,100442.00
2022-11-20T08:57:35.337Z,100450.59
2022-11-20T09:00:06.306Z,100370.13
2022-11-20T09:02:33.462Z,100452.72
2022-11-20T09:04:59.962Z,100455.97
2022-11-20T09:07:26.622Z,100405.00
2022-11-20T09:10:09.981Z,100446.59
2022-11-20T09:12:39.727Z,100454.03
2022-11-20T09:15:09.122Z,100456.56
2022-11-20T09:17:35.755Z,100456.50
2022-11-20T09:20:02.277Z,100449.22
2022-11-20T09:22:28.818Z,100434.38
2022-11-20T09:24:55.442Z,100452.97
2022-11-20T09:27:22.009Z,100454.78
2022-11-20T09:29:48.519Z,100453.03
2022-11-20T09:32:16.510Z,100451.25
2022-11-20T09:34:43.023Z,100447.88
2022-11-20T09:37:09.580Z,100435.56
2022-11-20T09:39:36.074Z,100436.91
2022-11-20T09:42:29.590Z,100437.44
2022-11-20T09:45:11.207Z,100431.38
2022-11-20T09:47:53.337Z,100427.50
2022-11-20T09:50:24.113Z,100431.06
2022-11-20T09:53:05.463Z,100407.81
2022-11-20T09:55:32.552Z,100433.47
2022-11-20T09:58:00.574Z,100420.28
2022-11-20T10:00:29.904Z,100422.28
2022-11-20T10:03:02.480Z,100419.84
2022-11-20T10:05:35.455Z,100421.19
2022-11-20T10:08:15.132Z,100420.06
2022-11-20T10:10:48.291Z,100420.16
2022-11-20T10:13:39.333Z,100415.53
2022-11-20T10:16:18.261Z,100417.44
2022-11-20T10:19:04.626Z,100410.44
2022-11-20T10:21:40.749Z,100409.88
2022-11-20T10:24:30.454Z,100411.97
2022-11-20T10:27:09.889Z,100414.03
2022-11-20T10:29:42.268Z,100405.53
2022-11-20T10:32:12.543Z,100399.47
2022-11-20T10:34:48.009Z,100373.25
2022-11-20T10:37:19.384Z,100385.75
2022-11-20T10:39:54.250Z,100393.06
2022-11-20T10:42:29.749Z,100389.81
2022-11-20T10:45:05.955Z,100385.78
2022-11-20T10:47:34.416Z,100372.44
2022-11-20T10:50:06.943Z,100356.09
2022-11-20T10:52:43.856Z,100370.09
2022-11-20T10:55:25.683Z,100361.88
2022-11-20T10:57:58.455Z,100355.28
2022-11-20T11:00:25.006Z,100330.81
2022-11-20T11:02:53.167Z,100355.28
2022-11-20T11:05:33.524Z,100345.84
2022-11-20T11:08:00.215Z,100350.78
2022-11-20T11:10:33.842Z,100342.91
2022-11-20T11:13:00.453Z,100340.50
2022-11-20T11:15:29.421Z,100333.84
2022-11-20T11:17:56.254Z,100320.34
2022-11-20T11:20:25.544Z,100277.50
2022-11-20T11:22:54.579Z,100246.44
2022-11-20T11:25:27.277Z,100327.97
2022-11-20T11:27:55.529Z,100313.91
2022-11-20T11:30:23.202Z,100314.00
2022-11-20T11:32:50.055Z,100301.72
2022-11-20T11:35:48.240Z,100297.47
2022-11-20T11:38:22.847Z,100309.13
2022-11-20T11:40:49.302Z,100295.81
2022-11-20T11:43:23.005Z,100294.25
2022-11-20T11:45:54.314Z,100290.69
2022-11-20T11:48:21.590Z,100291.63
2022-11-20T11:50:51.419Z,100276.34
2022-11-20T11:53:20.001Z,100286.75
2022-11-20T11:55:50.949Z,100279.72
2022-11-20T11:58:30.358Z,100251.94
2022-11-20T12:01:01.522Z,100272.69
2022-11-20T12:03:35.272Z,100244.78
2022-11-20T12:06:09.875Z,100263.97
2022-11-20T12:08:44.645Z,100262.50
2022-11-20T12:11:16.954Z,100262.28
2022-11-20T12:13:53.585Z,100269.41
2022-11-20T12:16:21.596Z,100205.72
2022-11-20T12:18:51.054Z,100240.94
2022-11-20T12:21:31.964Z,100246.44
2022-11-20T12:24:21.595Z,100232.72
2022-11-20T12:27:05.847Z,100242.88
2022-11-20T12:29:44.227Z,100228.09
2022-11-20T12:32:35.410Z,100225.31
2022-11-20T12:35:11.685Z,100223.31
2022-11-20T12:37:47.587Z,100203.84
2022-11-20T12:40:28.898Z,100193.84
2022-11-20T12:43:07.249Z,100213.88
2022-11-20T12:46:08.682Z,100211.16
2022-11-20T12:48:46.487Z,100214.72
2022-11-20T12:51:35.537Z,100193.25
2022-11-20T12:54:25.124Z,100210.03
2022-11-20T12:57:04.013Z,100189.19
2022-11-20T12:59:48.615Z,100195.53
2022-11-20T13:02:26.529Z,100195.88
2022-11-20T13:05:17.487Z,100202.69
2022-11-20T13:07:45.741Z,100146.06
2022-11-20T13:10:22.344Z,100183.72
2022-11-20T13:12:55.939Z,100155.97
2022-11-20T13:15:35.765Z,100166.09
2022-11-20T13:18:11.235Z,100065.16
2022-11-20T13:20:43.418Z,100155.47
2022-11-20T13:23:10.150Z,100148.81
2022-11-20T13:25:40.323Z,100149.28
2022-11-20T13:28:28.682Z,100120.31
2022-11-20T13:30:56.970Z,100138.44
2022-11-20T13:33:27.955Z,100132.59
2022-11-20T13:35:59.400Z,100116.75
2022-11-20T13:38:28.842Z,100126.75
2022-11-20T13:41:01.979Z,100130.19
2022-11-20T13:43:35.190Z,100122.69
2022-11-20T13:46:03.866Z,100116.59
2022-11-20T13:48:33.225Z,100023.34
2022-11-20T13:51:09.142Z,100107.75
2022-11-20T13:53:53.132Z,100099.78
2022-11-20T13:56:28.030Z,100106.56
2022-11-20T13:59:05.299Z,100104.28
2022-11-20T14:01:32.760Z,100094.16
2022-11-20T14:04:06.028Z,100093.72
2022-11-20T14:06:40.013Z,100083.94
2022-11-20T14:09:12.380Z,100050.22
2022-11-20T14:11:47.375Z,100073.69
2022-11-20T14:14:17.345Z,100024.84
2022-11-20T14:16:44.002Z,100041.06
2022-11-20T14:19:28.626Z,100058.78
2022-11-20T14:22:07.098Z,100058.91
2022-11-20T14:24:34.133Z,100048.88
2022-11-20T14:27:03.005Z,100044.47
2022-11-20T14:29:34.200Z,100042.97
2022-11-20T14:32:02.094Z,100036.88
2022-11-20T14:34:31.012Z,100039.88
2022-11-20T14:36:59.882Z,100016.31
2022-11-20T14:39:31.337Z,100039.16
2022-11-20T14:41:58.035Z,100012.09
2022-11-20T14:44:28.797Z,100030.91
2022-11-20T14:46:56.847Z,100017.53
2022-11-20T14:49:24.106Z,100001.94
2022-11-20T14:52:00.382Z,99991.38
2022-11-20T14:54:27.033Z,100022.69
2022-11-20T14:56:57.206Z,100012.81
2022-11-20T14:59:26.289Z,100008.91
2022-11-20T15:01:58.114Z,100009.28
2022-11-20T15:04:24.799Z,100002.72
2022-11-20T15:06:54.807Z,99969.13
2022-11-20T15:09:21.689Z,99997.69
2022-11-20T15:11:55.921Z,99998.41
2022-11-20T15:14:23.244Z,99904.03
2022-11-20T15:16:51.712Z,99988.75
2022-11-20T15:19:21.673Z,99955.44
2022-11-20T15:21:48.255Z,99987.44
2022-11-20T15:24:15.022Z,99980.28
2022-11-20T15:26:42.219Z,99984.22
2022-11-20T15:29:10.452Z,99959.13
2022-11-20T15:31:37.246Z,99983.84
2022-11-20T15:34:06.485Z,99984.91
2022-11-20T15:36:32.985Z,99983.03
2022-11-20T15:39:00.413Z,99983.03
2022-11-20T15:41:27.162Z,99979.44
2022-11-20T15:43:53.681Z,99973.94
2022-11-20T15:46:27.268Z,99944.81
2022-11-20T15:48:56.840Z,99969.03
2022-11-20T15:51:27.508Z,99967.97
2022-11-20T15:53:56.331Z,99963.56
2022-11-20T15:56:23.445Z,99967.50
2022-11-20T15:58:50.115Z,99959.75
2022-11-20T16:01:19.468Z,99955.59
2022-11-20T16:03:46.221Z,99916.34
2022-11-20T16:06:13.116Z,99951.06
2022-11-20T16:08:41.023Z,99935.22
2022-11-20T16:11:07.542Z,99916.91
2022-11-20T16:13:34.194Z,99928.91
2022-11-20T16:16:04.136Z,99919.53
2022-11-20T16:18:30.696Z,99927.63
2022-11-20T16:20:57.604Z,99882.75
2022-11-20T16:23:24.621Z,99802.84
2022-11-20T16:25:52.632Z,99875.00
2022-11-20T16:28:19.577Z,99905.81
2022-11-20T16:30:46.929Z,99884.44
2022-11-20T16:33:15.822Z,99896.66
2022-11-20T16:35:42.401Z,99897.50
2022-11-20T16:38:09.509Z,99854.22
2022-11-20T16:40:36.350Z,99891.19
2022-11-20T16:43:09.365Z,99873.44
2022-11-20T16:45:41.190Z,99874.47
2022-11-20T16:48:07.843Z,99872.69
2022-11-20T16:50:34.427Z,99876.03
2022-11-20T16:53:01.093Z,99869.09
2022-11-20T16:55:27.619Z,99765.69
2022-11-20T16:57:54.212Z,99855.63
2022-11-20T17:00:22.096Z,99851.19
2022-11-20T17:02:49.050Z,99848.47
2022-11-20T17:05:15.594Z,99837.13
2022-11-20T17:07:42.257Z,99846.69
2022-11-20T17:10:09.396Z,99842.25
2022-11-20T17:12:35.976Z,99840.47
2022-11-20T17:15:02.489Z,99833.69
2022-11-20T17:17:30.617Z,99741.03
2022-11-20T17:19:57.260Z,99835.22
2022-11-20T17:22:23.866Z,99824.03
2022-11-20T17:24:50.364Z,99822.25
2022-11-20T17:27:16.988Z,99827.59
2022-11-20T17:29:43.481Z,99822.13
2022-11-20T17:32:10.018Z,99812.59
2022-11-20T17:34:37.877Z,99788.34
2022-11-20T17:37:04.538Z,99812.34
2022-11-20T17:39:31.045Z,99798.97
2022-11-20T17:41:57.681Z,99799.81
2022-11-20T17:44:24.349Z,99790.38
2022-11-20T17:46:51.142Z,99782.41
2022-11-20T17:49:22.783Z,99779.06
2022-11-20T17:51:51.922Z,99774.66
2022-11-20T17:54:18.460Z,99743.06
2022-11-20T17:56:45.044Z,99771.47
2022-11-20T17:59:13.179Z,99768.72
2022-11-20T18:01:40.539Z,99727.09
2022-11-20T18:04:07.150Z,99737.19
2022-11-20T18:06:33.749Z,99730.38
2022-11-20T18:09:03.364Z,99739.88
2022-11-20T18:11:31.803Z,99714.03
2022-11-20T18:13:59.187Z,99697.84
2022-11-20T18:16:26.146Z,99712.75
2022-11-20T18:18:54.541Z,99725.38
2022-11-20T18:21:21.159Z,99724.88
2022-11-20T18:23:47.814Z,99712.75
2022-11-20T18:26:16.035Z,99681.00
2022-11-20T18:28:42.591Z,99679.69
2022-11-20T18:31:09.959Z,99691.41
2022-11-20T18:33:37.069Z,99684.53
2022-11-20T18:36:09.509Z,99693.13
2022-11-20T18:38:36.220Z,99689.44
2022-11-20T18:41:03.943Z,99694.28
2022-11-20T18:43:33.022Z,99677.19
2022-11-20T18:46:02.982Z,99678.75
2022-11-20T18:48:31.494Z,99680.00
2022-11-20T18:51:05.083Z,99670.22
2022-11-20T18:53:31.704Z,99676.44
2022-11-20T18:55:58.201Z,99650.97
2022-11-20T18:58:24.767Z,99664.69
2022-11-20T19:00:52.613Z,99670.16
2022-11-20T19:03:19.178Z,99657.34
2022-11-20T19:05:45.712Z,99668.94
2022-11-20T19:08:12.499Z,99667.84
2022-11-20T19:10:39.018Z,99666.19
2022-11-20T19:13:05.586Z,99676.97
2022-11-20T19:15:33.052Z,99667.44
2022-11-20T19:18:00.996Z,99638.69
2022-11-20T19:20:27.539Z,99636.50
2022-11-20T19:22:54.223Z,99655.34
2022-11-20T19:25:20.956Z,99652.03
2022-11-20T19:27:48.066Z,99656.06
2022-11-20T19:30:15.016Z,99619.66
2022-11-20T19:32:41.610Z,99655.34
2022-11-20T19:35:09.761Z,99599.91
2022-11-20T19:37:36.350Z,99655.34
2022-11-20T19:40:03.012Z,99651.06
2022-11-20T19:42:30.384Z,99656.06
2022-11-20T19:44:56.911Z,99650.81
2022-11-20T19:47:35.389Z,99649.00
2022-11-20T19:50:11.887Z,99644.44
2022-11-20T19:52:38.414Z,99631.75
2022-11-20T19:55:05.219Z,99637.41
2022-11-20T19:57:32.033Z,99614.03
2022-11-20T19:59:58.630Z,99640.03
2022-11-20T20:02:25.149Z,99632.59
2022-11-20T20:04:51.739Z,99626.25
2022-11-20T20:07:19.661Z,99641.72
2022-11-20T20:09:46.308Z,99638.72
2022-11-20T20:12:12.872Z,99642.72
2022-11-20T20:14:39.453Z,99620.19
2022-11-20T20:17:05.974Z,99636.66
2022-11-20T20:19:33.016Z,99647.00
2022-11-20T20:21:59.529Z,99638.47
2022-11-20T20:24:27.468Z,99638.47
2022-11-20T20:26:57.942Z,99640.81
2022-11-20T20:29:25.514Z,99637.63
2022-11-20T20:31:52.406Z,99618.00
2022-11-20T20:34:19.093Z,99634.47
2022-11-20T20:36:45.787Z,99636.41
2022-11-20T20:39:12.351Z,99639.03
2022-11-20T20:41:40.234Z,99620.50
2022-11-20T20:44:06.794Z,99639.88
2022-11-20T20:46:33.426Z,99642.22
2022-11-20T20:49:00.288Z,99531.97
2022-11-20T20:51:26.935Z,99632.16
2022-11-20T20:53:54.199Z,99630.88
2022-11-20T20:56:20.775Z,99623.59
2022-11-20T20:58:48.727Z,99635.19
2022-11-20T21:01:17.907Z,99637.25
2022-11-20T21:03:44.851Z,99626.22
2022-11-20T21:06:12.034Z,99629.09
2022-11-20T21:08:41.117Z,99600.34
2022-11-20T21:11:10.252Z,99625.09
2022-11-20T21:13:37.988Z,99620.41
2022-11-20T21:16:06.748Z,99604.22
2022-11-20T21:18:33.527Z,99631.69
2022-11-20T21:21:00.663Z,99630.59
2022-11-20T21:23:27.221Z,99631.69
2022-11-20T21:25:53.965Z,99620.22
2022-11-20T21:28:21.405Z,99616.63
2022-11-20T21:30:48.126Z,99629.38
2022-11-20T21:33:15.992Z,99632.81
2022-11-20T21:35:42.575Z,99625.38
2022-11-20T21:38:09.096Z,99638.34
2022-11-20T21:40:35.767Z,99623.28
2022-11-20T21:43:02.260Z,99642.34
2022-11-20T21:45:28.776Z,99634.88
2022-11-20T21:47:55.412Z,99624.94
2022-11-20T21:50:23.272Z,99650.66
2022-11-20T21:52:49.798Z,99646.78
2022-11-20T21:55:16.311Z,99616.53
2022-11-20T21:57:42.829Z,99647.06
2022-11-20T22:00:11.404Z,99654.13
2022-11-20T22:02:38.704Z,99647.91
2022-11-20T22:05:06.181Z,99657.72
2022-11-20T22:07:34.107Z,99655.91
2022-11-20T22:10:00.664Z,99645.00
2022-11-20T22:12:27.169Z,99656.63
2022-11-20T22:14:53.668Z,99657.97
2022-11-20T22:17:20.187Z,99649.00
2022-11-20T22:19:46.700Z,99663.25
2022-11-20T22:22:13.201Z,99655.06
2022-11-20T22:24:41.080Z,99663.25
2022-11-20T22:27:07.585Z,99657.00
2022-11-20T22:29:34.105Z,99658.66
2022-11-20T22:32:00.641Z,99669.59
2022-11-20T22:34:27.364Z,99673.75
2022-11-20T22:36:53.966Z,99678.84
2022-11-20T22:39:20.497Z,99662.84
2022-11-20T22:41:48.383Z,99676.66
2022-11-20T22:44:15.023Z,99684.69
2022-11-20T22:46:41.568Z,99695.06
2022-11-20T22:49:08.302Z,99671.13
2022-11-20T22:51:36.694Z,99655.47
2022-11-20T22:54:03.855Z,99688.25
2022-11-20T22:56:30.786Z,99694.78
2022-11-20T22:58:58.690Z,99722.00
2022-11-20T23:01:27.691Z,99712.44
2022-11-20T23:03:56.545Z,99685.47
2022-11-20T23:06:24.347Z,99707.47
2022-11-20T23:08:51.347Z,99706.78
2022-11-20T23:11:19.780Z,99701.00
2022-11-20T23:13:47.251Z,99651.88
2022-11-20T23:16:18.569Z,99692.69
2022-11-20T23:18:45.894Z,99689.06
2022-11-20T23:21:14.887Z,99717.28
2022-11-20T23:23:42.089Z,99726.53
2022-11-20T23:26:10.462Z,99728.34
2022-11-20T23:28:37.192Z,99723.50
2022-11-20T23:31:05.782Z,99736.22
2022-11-20T23:33:35.300Z,99731.94
2022-11-20T23:36:01.853Z,99707.59
2022-11-20T23:38:28.361Z,99732.63
2022-11-20T23:40:54.867Z,99725.03
2022-11-20T23:43:22.134Z,99725.47
2022-11-20T23:45:50.254Z,99721.59
2022-11-20T23:48:17.764Z,99695.28
2022-11-20T23:50:45.969Z,99724.22
2022-11-20T23:53:13.310Z,99727.78
2022-11-20T23:55:39.897Z,99710.09
2022-11-20T23:58:06.404Z,99714.00
